sensor_id;sensor_type;location;lat;lon;timestamp;pressure;altitude;pressure_sealevel;temperature;humidity
41632;BME280;37452;51.938;4.624;2023-02-28T00:01:16;79823.53;;;-142.75;100.00
41632;BME280;37452;51.938;4.624;2023-02-28T00:03:41;79809.75;;;-142.75;100.00
41632;BME280;37452;51.938;4.624;2023-02-28T00:06:07;79799.91;;;-142.75;100.00
41632;BME280;37452;51.938;4.624;2023-02-28T00:08:32;79797.94;;;-142.75;100.00
41632;BME280;37452;51.938;4.624;2023-02-28T00:11:01;79790.03;;;-142.75;100.00
41632;BME280;37452;51.938;4.624;2023-02-28T00:13:26;79799.91;;;-142.75;100.00
41632;BME280;37452;51.938;4.624;2023-02-28T00:15:58;79815.66;;;-142.75;100.00
41632;BME280;37452;51.938;4.624;2023-02-28T00:18:24;79819.59;;;-142.75;100.00
41632;BME280;37452;51.938;4.624;2023-02-28T00:20:49;79827.47;;;-142.75;100.00
41632;BME280;37452;51.938;4.624;2023-02-28T00:23:14;79827.47;;;-142.75;100.00
41632;BME280;37452;51.938;4.624;2023-02-28T00:25:39;79831.41;;;-142.75;100.00
41632;BME280;37452;51.938;4.624;2023-02-28T00:28:05;79849.16;;;-142.75;100.00
41632;BME280;37452;51.938;4.624;2023-02-28T00:30:30;79859.00;;;-142.75;100.00
41632;BME280;37452;51.938;4.624;2023-02-28T00:32:55;79851.13;;;-142.75;100.00
41632;BME280;37452;51.938;4.624;2023-02-28T00:35:20;79851.13;;;-142.75;100.00
41632;BME280;37452;51.938;4.624;2023-02-28T00:37:45;79833.38;;;-142.75;100.00
41632;BME280;37452;51.938;4.624;2023-02-28T00:40:12;79817.63;;;-142.75;100.00
41632;BME280;37452;51.938;4.624;2023-02-28T00:42:37;79809.75;;;-142.75;100.00
41632;BME280;37452;51.938;4.624;2023-02-28T00:45:03;79815.66;;;-142.75;100.00
41632;BME280;37452;51.938;4.624;2023-02-28T00:47:29;79811.72;;;-142.75;100.00
41632;BME280;37452;51.938;4.624;2023-02-28T00:49:55;79797.94;;;-142.75;100.00
41632;BME280;37452;51.938;4.624;2023-02-28T00:52:20;79788.06;;;-142.75;100.00
41632;BME280;37452;51.938;4.624;2023-02-28T00:54:46;79766.41;;;-142.75;100.00
41632;BME280;37452;51.938;4.624;2023-02-28T00:57:11;79744.72;;;-142.75;100.00
41632;BME280;37452;51.938;4.624;2023-02-28T00:59:36;79717.16;;;-142.75;100.00
41632;BME280;37452;51.938;4.624;2023-02-28T01:02:02;79719.13;;;-142.75;100.00
41632;BME280;37452;51.938;4.624;2023-02-28T01:04:27;79717.16;;;-142.75;100.00
41632;BME280;37452;51.938;4.624;2023-02-28T01:06:52;79703.38;;;-142.75;100.00
41632;BME280;37452;51.938;4.624;2023-02-28T01:09:17;79717.16;;;-142.75;100.00
41632;BME280;37452;51.938;4.624;2023-02-28T01:11:42;79721.09;;;-142.75;100.00
41632;BME280;37452;51.938;4.624;2023-02-28T01:14:11;79717.16;;;-142.75;100.00
41632;BME280;37452;51.938;4.624;2023-02-28T01:16:37;79727.00;;;-142.75;100.00
41632;BME280;37452;51.938;4.624;2023-02-28T01:19:02;79705.34;;;-142.75;100.00
41632;BME280;37452;51.938;4.624;2023-02-28T01:21:27;79713.22;;;-142.75;100.00
41632;BME280;37452;51.938;4.624;2023-02-28T01:23:55;79701.38;;;-142.75;100.00
41632;BME280;37452;51.938;4.624;2023-02-28T01:26:21;79685.63;;;-142.75;100.00
41632;BME280;37452;51.938;4.624;2023-02-28T01:28:47;79669.88;;;-142.75;100.00
41632;BME280;37452;51.938;4.624;2023-02-28T01:31:13;79662.00;;;-142.75;100.00
41632;BME280;37452;51.938;4.624;2023-02-28T01:33:39;79662.00;;;-142.75;100.00
41632;BME280;37452;51.938;4.624;2023-02-28T01:36:05;79652.13;;;-142.75;100.00
41632;BME280;37452;51.938;4.624;2023-02-28T01:38:31;79638.34;;;-142.75;100.00
41632;BME280;37452;51.938;4.624;2023-02-28T01:40:56;79628.50;;;-142.75;100.00
41632;BME280;37452;51.938;4.624;2023-02-28T01:43:26;79634.41;;;-142.75;100.00
41632;BME280;37452;51.938;4.624;2023-02-28T01:45:52;79618.66;;;-142.75;100.00
41632;BME280;37452;51.938;4.624;2023-02-28T01:48:18;79606.84;;;-142.75;100.00
41632;BME280;37452;51.938;4.624;2023-02-28T01:50:44;79610.78;;;-142.75;100.00
41632;BME280;37452;51.938;4.624;2023-02-28T01:53:14;79593.03;;;-142.75;100.00
41632;BME280;37452;51.938;4.624;2023-02-28T01:55:40;79575.31;;;-142.75;100.00
41632;BME280;37452;51.938;4.624;2023-02-28T01:58:09;79577.28;;;-142.75;100.00
41632;BME280;37452;51.938;4.624;2023-02-28T02:00:35;79563.50;;;-142.75;100.00
41632;BME280;37452;51.938;4.624;2023-02-28T02:03:03;79573.34;;;-142.75;100.00
41632;BME280;37452;51.938;4.624;2023-02-28T02:05:30;79567.44;;;-142.75;100.00
41632;BME280;37452;51.938;4.624;2023-02-28T02:08:04;79563.50;;;-142.75;100.00
41632;BME280;37452;51.938;4.624;2023-02-28T02:10:36;79567.44;;;-142.75;100.00
41632;BME280;37452;51.938;4.624;2023-02-28T02:18:03;79545.75;;;-142.75;100.00
41632;BME280;37452;51.938;4.624;2023-02-28T02:23:28;79545.75;;;-142.75;100.00
41632;BME280;37452;51.938;4.624;2023-02-28T02:31:24;79553.63;;;-142.75;100.00
41632;BME280;37452;51.938;4.624;2023-02-28T02:36:28;79547.72;;;-142.75;100.00
41632;BME280;37452;51.938;4.624;2023-02-28T02:43:58;79539.84;;;-142.75;100.00
41632;BME280;37452;51.938;4.624;2023-02-28T02:48:52;79520.16;;;-142.75;100.00
41632;BME280;37452;51.938;4.624;2023-02-28T02:51:20;79531.97;;;-142.75;100.00
41632;BME280;37452;51.938;4.624;2023-02-28T02:53:48;79526.06;;;-142.75;100.00
41632;BME280;37452;51.938;4.624;2023-02-28T02:56:15;79530.00;;;-142.75;100.00
41632;BME280;37452;51.938;4.624;2023-02-28T02:58:42;79535.91;;;-142.75;100.00
41632;BME280;37452;51.938;4.624;2023-02-28T03:01:10;79528.03;;;-142.75;100.00
41632;BME280;37452;51.938;4.624;2023-02-28T03:03:37;79528.03;;;-142.75;100.00
41632;BME280;37452;51.938;4.624;2023-02-28T03:06:02;79524.09;;;-142.75;100.00
41632;BME280;37452;51.938;4.624;2023-02-28T03:08:29;79520.16;;;-142.75;100.00
41632;BME280;37452;51.938;4.624;2023-02-28T03:10:56;79541.81;;;-142.75;100.00
41632;BME280;37452;51.938;4.624;2023-02-28T03:16:26;79543.78;;;-142.75;100.00
41632;BME280;37452;51.938;4.624;2023-02-28T03:26:31;79520.16;;;-142.75;100.00
41632;BME280;37452;51.938;4.624;2023-02-28T03:31:36;79522.13;;;-142.75;100.00
41632;BME280;37452;51.938;4.624;2023-02-28T03:34:04;79528.03;;;-142.75;100.00
41632;BME280;37452;51.938;4.624;2023-02-28T03:36:35;79516.22;;;-142.75;100.00
41632;BME280;37452;51.938;4.624;2023-02-28T03:39:07;79520.16;;;-142.75;100.00
41632;BME280;37452;51.938;4.624;2023-02-28T03:41:42;79541.81;;;-142.75;100.00
41632;BME280;37452;51.938;4.624;2023-02-28T03:44:11;79533.94;;;-142.75;100.00
41632;BME280;37452;51.938;4.624;2023-02-28T03:46:41;79524.09;;;-142.75;100.00
41632;BME280;37452;51.938;4.624;2023-02-28T03:49:15;79518.19;;;-142.75;100.00
41632;BME280;37452;51.938;4.624;2023-02-28T03:51:41;79530.00;;;-142.75;100.00
41632;BME280;37452;51.938;4.624;2023-02-28T03:54:09;79533.94;;;-142.75;100.00
41632;BME280;37452;51.938;4.624;2023-02-28T03:56:38;79518.19;;;-142.75;100.00
41632;BME280;37452;51.938;4.624;2023-02-28T03:59:05;79530.00;;;-142.75;100.00
41632;BME280;37452;51.938;4.624;2023-02-28T04:04:00;79498.47;;;-142.75;100.00
41632;BME280;37452;51.938;4.624;2023-02-28T04:06:27;79512.28;;;-142.75;100.00
41632;BME280;37452;51.938;4.624;2023-02-28T04:08:52;79516.22;;;-142.75;100.00
41632;BME280;37452;51.938;4.624;2023-02-28T04:13:43;79533.94;;;-142.75;100.00
41632;BME280;37452;51.938;4.624;2023-02-28T04:16:08;79514.25;;;-142.75;100.00
41632;BME280;37452;51.938;4.624;2023-02-28T04:18:37;79528.03;;;-142.75;100.00
41632;BME280;37452;51.938;4.624;2023-02-28T04:21:03;79504.41;;;-142.75;100.00
41632;BME280;37452;51.938;4.624;2023-02-28T04:23:28;79500.47;;;-142.75;100.00
41632;BME280;37452;51.938;4.624;2023-02-28T04:25:54;79510.31;;;-142.75;100.00
41632;BME280;37452;51.938;4.624;2023-02-28T04:28:20;79500.47;;;-142.75;100.00
41632;BME280;37452;51.938;4.624;2023-02-28T04:30:45;79500.47;;;-142.75;100.00
41632;BME280;37452;51.938;4.624;2023-02-28T04:33:10;79516.22;;;-142.75;100.00
41632;BME280;37452;51.938;4.624;2023-02-28T04:35:35;79539.84;;;-142.75;100.00
41632;BME280;37452;51.938;4.624;2023-02-28T04:38:00;79545.75;;;-142.75;100.00
41632;BME280;37452;51.938;4.624;2023-02-28T04:40:26;79531.97;;;-142.75;100.00
41632;BME280;37452;51.938;4.624;2023-02-28T04:42:51;79531.97;;;-142.75;100.00
41632;BME280;37452;51.938;4.624;2023-02-28T04:45:16;79514.25;;;-142.75;100.00
41632;BME280;37452;51.938;4.624;2023-02-28T04:47:42;79522.13;;;-142.75;100.00
41632;BME280;37452;51.938;4.624;2023-02-28T04:50:07;79518.19;;;-142.75;100.00
41632;BME280;37452;51.938;4.624;2023-02-28T04:52:33;79533.94;;;-142.75;100.00
41632;BME280;37452;51.938;4.624;2023-02-28T04:54:58;79530.00;;;-142.75;100.00
41632;BME280;37452;51.938;4.624;2023-02-28T04:57:24;79553.63;;;-142.75;100.00
41632;BME280;37452;51.938;4.624;2023-02-28T04:59:49;79530.00;;;-142.75;100.00
41632;BME280;37452;51.938;4.624;2023-02-28T05:02:14;79530.00;;;-142.75;100.00
41632;BME280;37452;51.938;4.624;2023-02-28T05:04:39;79528.03;;;-142.75;100.00
41632;BME280;37452;51.938;4.624;2023-02-28T05:07:04;79530.00;;;-142.75;100.00
41632;BME280;37452;51.938;4.624;2023-02-28T05:09:30;79531.97;;;-142.75;100.00
41632;BME280;37452;51.938;4.624;2023-02-28T05:11:55;79518.19;;;-142.75;100.00
41632;BME280;37452;51.938;4.624;2023-02-28T05:14:20;79530.00;;;-142.75;100.00
41632;BME280;37452;51.938;4.624;2023-02-28T05:16:46;79528.03;;;-142.75;100.00
41632;BME280;37452;51.938;4.624;2023-02-28T05:19:11;79522.13;;;-142.75;100.00
41632;BME280;37452;51.938;4.624;2023-02-28T05:21:52;79512.28;;;-142.75;100.00
41632;BME280;37452;51.938;4.624;2023-02-28T05:24:18;79522.13;;;-142.75;100.00
41632;BME280;37452;51.938;4.624;2023-02-28T05:26:50;79516.22;;;-142.75;100.00
41632;BME280;37452;51.938;4.624;2023-02-28T05:29:16;79512.28;;;-142.75;100.00
41632;BME280;37452;51.938;4.624;2023-02-28T05:31:42;79504.41;;;-142.75;100.00
41632;BME280;37452;51.938;4.624;2023-02-28T05:34:07;79496.50;;;-142.75;100.00
41632;BME280;37452;51.938;4.624;2023-02-28T05:36:32;79478.78;;;-142.75;100.00
41632;BME280;37452;51.938;4.624;2023-02-28T05:38:58;79472.88;;;-142.75;100.00
41632;BME280;37452;51.938;4.624;2023-02-28T05:41:23;79472.88;;;-142.75;100.00
41632;BME280;37452;51.938;4.624;2023-02-28T05:43:48;79516.22;;;-142.75;100.00
41632;BME280;37452;51.938;4.624;2023-02-28T05:46:14;79520.16;;;-142.75;100.00
41632;BME280;37452;51.938;4.624;2023-02-28T05:48:39;79559.56;;;-142.75;100.00
41632;BME280;37452;51.938;4.624;2023-02-28T05:51:05;79589.09;;;-142.75;100.00
41632;BME280;37452;51.938;4.624;2023-02-28T05:53:31;79591.06;;;-142.75;100.00
41632;BME280;37452;51.938;4.624;2023-02-28T05:55:57;79614.72;;;-142.75;100.00
41632;BME280;37452;51.938;4.624;2023-02-28T05:58:22;79634.41;;;-142.75;100.00
41632;BME280;37452;51.938;4.624;2023-02-28T06:00:48;79662.00;;;-142.75;100.00
41632;BME280;37452;51.938;4.624;2023-02-28T06:03:13;79665.94;;;-142.75;100.00
41632;BME280;37452;51.938;4.624;2023-02-28T06:05:38;79677.75;;;-142.75;100.00
41632;BME280;37452;51.938;4.624;2023-02-28T06:08:03;79697.44;;;-142.75;100.00
41632;BME280;37452;51.938;4.624;2023-02-28T06:10:29;79701.38;;;-142.75;100.00
41632;BME280;37452;51.938;4.624;2023-02-28T06:12:54;79709.28;;;-142.75;100.00
41632;BME280;37452;51.938;4.624;2023-02-28T06:15:19;79709.28;;;-142.75;100.00
41632;BME280;37452;51.938;4.624;2023-02-28T06:17:45;79736.84;;;-142.75;100.00
41632;BME280;37452;51.938;4.624;2023-02-28T06:20:11;79727.00;;;-142.75;100.00
41632;BME280;37452;51.938;4.624;2023-02-28T06:22:38;79736.84;;;-142.75;100.00
41632;BME280;37452;51.938;4.624;2023-02-28T06:25:04;79736.84;;;-142.75;100.00
41632;BME280;37452;51.938;4.624;2023-02-28T06:27:30;79756.56;;;-142.75;100.00
41632;BME280;37452;51.938;4.624;2023-02-28T06:29:55;79774.28;;;-142.75;100.00
41632;BME280;37452;51.938;4.624;2023-02-28T06:32:21;79780.19;;;-142.75;100.00
41632;BME280;37452;51.938;4.624;2023-02-28T06:34:46;79780.19;;;-142.75;100.00
41632;BME280;37452;51.938;4.624;2023-02-28T06:37:11;79776.25;;;-142.75;100.00
41632;BME280;37452;51.938;4.624;2023-02-28T06:39:36;79772.31;;;-142.75;100.00
41632;BME280;37452;51.938;4.624;2023-02-28T06:42:01;79780.19;;;-142.75;100.00
41632;BME280;37452;51.938;4.624;2023-02-28T06:44:27;79772.31;;;-142.75;100.00
41632;BME280;37452;51.938;4.624;2023-02-28T06:46:58;79752.63;;;-142.75;100.00
41632;BME280;37452;51.938;4.624;2023-02-28T06:49:23;79766.41;;;-142.75;100.00
41632;BME280;37452;51.938;4.624;2023-02-28T06:51:48;79768.38;;;-142.75;100.00
41632;BME280;37452;51.938;4.624;2023-02-28T06:54:13;79786.09;;;-142.75;100.00
41632;BME280;37452;51.938;4.624;2023-02-28T06:56:39;79795.94;;;-142.75;100.00
41632;BME280;37452;51.938;4.624;2023-02-28T06:59:04;79788.06;;;-142.75;100.00
41632;BME280;37452;51.938;4.624;2023-02-28T07:01:29;79784.13;;;-142.75;100.00
41632;BME280;37452;51.938;4.624;2023-02-28T07:03:56;79792.00;;;-142.75;100.00
41632;BME280;37452;51.938;4.624;2023-02-28T07:06:22;79803.84;;;-142.75;100.00
41632;BME280;37452;51.938;4.624;2023-02-28T07:08:48;79793.97;;;-142.75;100.00
41632;BME280;37452;51.938;4.624;2023-02-28T07:11:13;79778.22;;;-142.75;100.00
41632;BME280;37452;51.938;4.624;2023-02-28T07:13:39;79766.41;;;-142.75;100.00
41632;BME280;37452;51.938;4.624;2023-02-28T07:16:05;79768.38;;;-142.75;100.00
41632;BME280;37452;51.938;4.624;2023-02-28T07:18:30;79772.31;;;-142.75;100.00
41632;BME280;37452;51.938;4.624;2023-02-28T07:20:56;79772.31;;;-142.75;100.00
41632;BME280;37452;51.938;4.624;2023-02-28T07:23:21;79764.44;;;-142.75;100.00
41632;BME280;37452;51.938;4.624;2023-02-28T07:25:47;79762.47;;;-142.75;100.00
41632;BME280;37452;51.938;4.624;2023-02-28T07:28:12;79762.47;;;-142.75;100.00
41632;BME280;37452;51.938;4.624;2023-02-28T07:30:38;79754.59;;;-142.75;100.00
41632;BME280;37452;51.938;4.624;2023-02-28T07:33:03;79750.66;;;-142.75;100.00
41632;BME280;37452;51.938;4.624;2023-02-28T07:35:28;79732.91;;;-142.75;100.00
41632;BME280;37452;51.938;4.624;2023-02-28T07:37:54;79723.06;;;-142.75;100.00
41632;BME280;37452;51.938;4.624;2023-02-28T07:40:19;79715.19;;;-142.75;100.00
41632;BME280;37452;51.938;4.624;2023-02-28T07:42:44;79711.25;;;-142.75;100.00
41632;BME280;37452;51.938;4.624;2023-02-28T07:45:10;79711.25;;;-142.75;100.00
41632;BME280;37452;51.938;4.624;2023-02-28T07:47:37;79717.16;;;-142.75;100.00
41632;BME280;37452;51.938;4.624;2023-02-28T07:50:02;79721.09;;;-142.75;100.00
41632;BME280;37452;51.938;4.624;2023-02-28T07:52:27;79679.72;;;-142.75;100.00
41632;BME280;37452;51.938;4.624;2023-02-28T07:54:52;79685.63;;;-142.75;100.00
41632;BME280;37452;51.938;4.624;2023-02-28T07:57:18;79693.50;;;-142.75;100.00
41632;BME280;37452;51.938;4.624;2023-02-28T07:59:43;79673.81;;;-142.75;100.00
41632;BME280;37452;51.938;4.624;2023-02-28T08:02:15;79665.94;;;-142.75;100.00
41632;BME280;37452;51.938;4.624;2023-02-28T08:04:40;79656.09;;;-142.75;100.00
41632;BME280;37452;51.938;4.624;2023-02-28T08:07:06;79654.13;;;-142.75;100.00
41632;BME280;37452;51.938;4.624;2023-02-28T08:09:31;79660.03;;;-142.75;100.00
41632;BME280;37452;51.938;4.624;2023-02-28T08:11:56;79667.91;;;-142.75;100.00
41632;BME280;37452;51.938;4.624;2023-02-28T08:14:22;79658.06;;;-142.75;100.00
41632;BME280;37452;51.938;4.624;2023-02-28T08:16:47;79662.00;;;-142.75;100.00
41632;BME280;37452;51.938;4.624;2023-02-28T08:19:12;79662.00;;;-142.75;100.00
41632;BME280;37452;51.938;4.624;2023-02-28T08:21:38;79662.00;;;-142.75;100.00
41632;BME280;37452;51.938;4.624;2023-02-28T08:24:03;79662.00;;;-142.75;100.00
41632;BME280;37452;51.938;4.624;2023-02-28T08:26:28;79654.13;;;-142.75;100.00
41632;BME280;37452;51.938;4.624;2023-02-28T08:28:53;79654.13;;;-142.75;100.00
41632;BME280;37452;51.938;4.624;2023-02-28T08:31:19;79636.38;;;-142.75;100.00
41632;BME280;37452;51.938;4.624;2023-02-28T08:33:44;79628.50;;;-142.75;100.00
41632;BME280;37452;51.938;4.624;2023-02-28T08:36:10;79612.75;;;-142.75;100.00
41632;BME280;37452;51.938;4.624;2023-02-28T08:38:35;79610.78;;;-142.75;100.00
41632;BME280;37452;51.938;4.624;2023-02-28T08:41:03;79595.00;;;-142.75;100.00
41632;BME280;37452;51.938;4.624;2023-02-28T08:43:28;79602.88;;;-142.75;100.00
41632;BME280;37452;51.938;4.624;2023-02-28T08:45:54;79602.88;;;-142.75;100.00
41632;BME280;37452;51.938;4.624;2023-02-28T08:48:21;79577.28;;;-142.75;100.00
41632;BME280;37452;51.938;4.624;2023-02-28T08:53:24;79575.31;;;-142.75;100.00
41632;BME280;37452;51.938;4.624;2023-02-28T08:58:41;79567.44;;;-142.75;100.00
41632;BME280;37452;51.938;4.624;2023-02-28T09:01:07;79565.47;;;-142.75;100.00
41632;BME280;37452;51.938;4.624;2023-02-28T09:03:33;79573.34;;;-142.75;100.00
41632;BME280;37452;51.938;4.624;2023-02-28T09:05:59;79559.56;;;-142.75;100.00
41632;BME280;37452;51.938;4.624;2023-02-28T09:08:25;79533.94;;;-142.75;100.00
41632;BME280;37452;51.938;4.624;2023-02-28T09:10:50;79537.88;;;-142.75;100.00
41632;BME280;37452;51.938;4.624;2023-02-28T09:13:16;79526.06;;;-142.75;100.00
41632;BME280;37452;51.938;4.624;2023-02-28T09:15:41;79528.03;;;-142.75;100.00
41632;BME280;37452;51.938;4.624;2023-02-28T09:18:06;79530.00;;;-142.75;100.00
41632;BME280;37452;51.938;4.624;2023-02-28T09:20:31;79547.72;;;-142.75;100.00
41632;BME280;37452;51.938;4.624;2023-02-28T09:22:57;79547.72;;;-142.75;100.00
41632;BME280;37452;51.938;4.624;2023-02-28T09:25:22;79526.06;;;-142.75;100.00
41632;BME280;37452;51.938;4.624;2023-02-28T09:27:47;79541.81;;;-142.75;100.00
41632;BME280;37452;51.938;4.624;2023-02-28T09:30:13;79535.91;;;-142.75;100.00
41632;BME280;37452;51.938;4.624;2023-02-28T09:32:38;79537.88;;;-142.75;100.00
41632;BME280;37452;51.938;4.624;2023-02-28T09:35:04;79553.63;;;-142.75;100.00
41632;BME280;37452;51.938;4.624;2023-02-28T09:37:30;79531.97;;;-142.75;100.00
41632;BME280;37452;51.938;4.624;2023-02-28T09:39:56;79512.28;;;-142.75;100.00
41632;BME280;37452;51.938;4.624;2023-02-28T09:42:22;79526.06;;;-142.75;100.00
41632;BME280;37452;51.938;4.624;2023-02-28T09:44:51;79541.81;;;-142.75;100.00
41632;BME280;37452;51.938;4.624;2023-02-28T09:47:30;79565.47;;;-142.75;100.00
41632;BME280;37452;51.938;4.624;2023-02-28T09:49:58;79561.53;;;-142.75;100.00
41632;BME280;37452;51.938;4.624;2023-02-28T09:52:27;79555.63;;;-142.75;100.00
41632;BME280;37452;51.938;4.624;2023-02-28T09:54:53;79563.50;;;-142.75;100.00
41632;BME280;37452;51.938;4.624;2023-02-28T09:57:32;79591.06;;;-142.75;100.00
41632;BME280;37452;51.938;4.624;2023-02-28T10:02:49;79575.31;;;-142.75;100.00
41632;BME280;37452;51.938;4.624;2023-02-28T10:05:39;79579.25;;;-142.75;100.00
41632;BME280;37452;51.938;4.624;2023-02-28T10:08:05;79581.22;;;-142.75;100.00
41632;BME280;37452;51.938;4.624;2023-02-28T10:13:05;79591.06;;;-142.75;100.00
41632;BME280;37452;51.938;4.624;2023-02-28T10:15:31;79595.00;;;-142.75;100.00
41632;BME280;37452;51.938;4.624;2023-02-28T10:18:11;79595.00;;;-142.75;100.00
41632;BME280;37452;51.938;4.624;2023-02-28T10:20:39;79595.00;;;-142.75;100.00
41632;BME280;37452;51.938;4.624;2023-02-28T10:25:38;79561.53;;;-142.75;100.00
41632;BME280;37452;51.938;4.624;2023-02-28T10:30:36;79528.03;;;-142.75;100.00
41632;BME280;37452;51.938;4.624;2023-02-28T10:33:01;79504.41;;;-142.75;100.00
41632;BME280;37452;51.938;4.624;2023-02-28T10:35:26;79476.81;;;-142.75;100.00
41632;BME280;37452;51.938;4.624;2023-02-28T10:37:56;79398.03;;;-142.75;100.00
41632;BME280;37452;51.938;4.624;2023-02-28T10:43:00;79240.44;;;-142.75;100.00
41632;BME280;37452;51.938;4.624;2023-02-28T10:45:26;79145.88;;;-142.75;100.00
41632;BME280;37452;51.938;4.624;2023-02-28T10:52:51;79208.91;;;-142.75;100.00
41632;BME280;37452;51.938;4.624;2023-02-28T10:55:22;79214.81;;;-142.75;97.92
41632;BME280;37452;51.938;4.624;2023-02-28T10:57:47;79222.72;;;-142.75;95.19
41632;BME280;37452;51.938;4.624;2023-02-28T11:02:38;79145.88;;;-142.75;87.82
41632;BME280;37452;51.938;4.624;2023-02-28T11:07:53;79100.59;;;-142.75;73.47
41632;BME280;37452;51.938;4.624;2023-02-28T11:10:19;79094.69;;;-142.75;72.91
41632;BME280;37452;51.938;4.624;2023-02-28T11:12:46;79116.34;;;-142.75;71.43
41632;BME280;37452;51.938;4.624;2023-02-28T11:15:22;79173.47;;;-142.75;71.90
41632;BME280;37452;51.938;4.624;2023-02-28T11:17:55;79240.44;;;-142.75;71.41
41632;BME280;37452;51.938;4.624;2023-02-28T11:20:21;79335.00;;;-142.75;69.66
41632;BME280;37452;51.938;4.624;2023-02-28T11:22:48;79344.84;;;-142.75;70.27
41632;BME280;37452;51.938;4.624;2023-02-28T11:25:25;79372.41;;;-142.75;72.51
41632;BME280;37452;51.938;4.624;2023-02-28T11:27:52;79374.38;;;-142.75;71.81
41632;BME280;37452;51.938;4.624;2023-02-28T11:32:49;79323.16;;;-142.75;73.62
41632;BME280;37452;51.938;4.624;2023-02-28T11:35:21;79299.53;;;-142.75;71.92
41632;BME280;37452;51.938;4.624;2023-02-28T11:37:48;79244.38;;;-142.75;71.85
41632;BME280;37452;51.938;4.624;2023-02-28T11:40:17;79242.41;;;-142.75;68.98
41632;BME280;37452;51.938;4.624;2023-02-28T11:42:57;79216.78;;;-142.75;69.21
41632;BME280;37452;51.938;4.624;2023-02-28T11:51:19;79165.59;;;-142.75;69.45
41632;BME280;37452;51.938;4.624;2023-02-28T12:06:47;78830.75;;;-142.75;60.13
41632;BME280;37452;51.938;4.624;2023-02-28T12:09:30;78803.16;;;-142.75;54.81
41632;BME280;37452;51.938;4.624;2023-02-28T12:12:01;78783.47;;;-142.75;51.18
41632;BME280;37452;51.938;4.624;2023-02-28T12:27:19;78844.53;;;-142.75;46.36
41632;BME280;37452;51.938;4.624;2023-02-28T12:29:50;78771.66;;;-142.75;47.11
41632;BME280;37452;51.938;4.624;2023-02-28T12:32:21;78777.56;;;-142.75;47.44
41632;BME280;37452;51.938;4.624;2023-02-28T12:34:53;78744.09;;;-142.75;46.08
41632;BME280;37452;51.938;4.624;2023-02-28T12:38:05;78777.56;;;-142.75;45.37
41632;BME280;37452;51.938;4.624;2023-02-28T12:40:17;78803.16;;;-142.75;44.42
41632;BME280;37452;51.938;4.624;2023-02-28T12:42:45;78791.34;;;-142.75;43.37
41632;BME280;37452;51.938;4.624;2023-02-28T12:47:46;78757.88;;;-142.75;43.43
41632;BME280;37452;51.938;4.624;2023-02-28T12:50:13;78659.38;;;-142.75;41.84
41632;BME280;37452;51.938;4.624;2023-02-28T12:53:02;78685.00;;;-142.75;41.15
41632;BME280;37452;51.938;4.624;2023-02-28T13:00:46;78787.41;;;-142.75;43.18
41632;BME280;37452;51.938;4.624;2023-02-28T13:10:44;78921.34;;;-142.75;42.74
41632;BME280;37452;51.938;4.624;2023-02-28T13:13:14;78972.56;;;-142.75;44.35
41632;BME280;37452;51.938;4.624;2023-02-28T13:15:40;78941.03;;;-142.75;44.00
41632;BME280;37452;51.938;4.624;2023-02-28T13:18:24;78966.66;;;-142.75;47.41
41632;BME280;37452;51.938;4.624;2023-02-28T13:20:52;78921.34;;;-142.75;49.00
41632;BME280;37452;51.938;4.624;2023-02-28T13:26:01;78858.31;;;-142.75;43.84
41632;BME280;37452;51.938;4.624;2023-02-28T13:31:12;78858.31;;;-142.75;48.20
41632;BME280;37452;51.938;4.624;2023-02-28T13:34:22;78927.25;;;-142.75;47.48
41632;BME280;37452;51.938;4.624;2023-02-28T13:36:25;78968.63;;;-142.75;48.44
41632;BME280;37452;51.938;4.624;2023-02-28T13:44:09;78992.25;;;-142.75;52.30
41632;BME280;37452;51.938;4.624;2023-02-28T13:46:35;79013.91;;;-142.75;52.63
41632;BME280;37452;51.938;4.624;2023-02-28T13:49:23;79037.56;;;-142.75;57.11
41632;BME280;37452;51.938;4.624;2023-02-28T13:51:50;79074.97;;;-142.75;54.82
41632;BME280;37452;51.938;4.624;2023-02-28T13:57:18;79090.72;;;-142.75;54.51
41632;BME280;37452;51.938;4.624;2023-02-28T14:02:33;79084.81;;;-142.75;58.04
41632;BME280;37452;51.938;4.624;2023-02-28T14:05:21;79139.97;;;-142.75;58.20
41632;BME280;37452;51.938;4.624;2023-02-28T14:07:54;79173.47;;;-142.75;58.08
41632;BME280;37452;51.938;4.624;2023-02-28T14:12:56;79139.97;;;-142.75;59.66
41632;BME280;37452;51.938;4.624;2023-02-28T14:17:54;79128.16;;;-142.75;60.11
41632;BME280;37452;51.938;4.624;2023-02-28T14:20:20;79102.56;;;-142.75;62.93
41632;BME280;37452;51.938;4.624;2023-02-28T14:22:50;79096.66;;;-142.75;67.01
41632;BME280;37452;51.938;4.624;2023-02-28T14:30:40;79078.91;;;-142.75;61.74
41632;BME280;37452;51.938;4.624;2023-02-28T14:33:17;79088.75;;;-142.75;60.78
41632;BME280;37452;51.938;4.624;2023-02-28T14:35:53;79106.50;;;-142.75;60.21
41632;BME280;37452;51.938;4.624;2023-02-28T14:38:25;79112.41;;;-142.75;61.10
41632;BME280;37452;51.938;4.624;2023-02-28T14:40:53;79138.00;;;-142.75;60.65
41632;BME280;37452;51.938;4.624;2023-02-28T14:43:21;79141.94;;;-142.75;62.49
41632;BME280;37452;51.938;4.624;2023-02-28T14:45:49;79151.78;;;-142.75;60.78
41632;BME280;37452;51.938;4.624;2023-02-28T14:48:15;79159.69;;;-142.75;63.99
41632;BME280;37452;51.938;4.624;2023-02-28T14:50:40;79163.63;;;-142.75;65.23
41632;BME280;37452;51.938;4.624;2023-02-28T14:53:15;79161.66;;;-142.75;62.89
41632;BME280;37452;51.938;4.624;2023-02-28T14:55:43;79175.44;;;-142.75;62.30
41632;BME280;37452;51.938;4.624;2023-02-28T14:58:19;79165.59;;;-142.75;62.70
41632;BME280;37452;51.938;4.624;2023-02-28T15:00:46;79159.69;;;-142.75;67.41